createdAt,value
2018-04-10T00:01:37.887Z,100156.61
2018-04-10T00:04:06.200Z,100163.78
2018-04-10T00:06:34.500Z,100159.44
2018-04-10T00:09:02.836Z,100156.53
2018-04-10T00:11:31.175Z,100158.62
2018-04-10T00:13:59.484Z,100160.77
2018-04-10T00:16:27.796Z,100157.47
2018-04-10T00:18:56.916Z,100154.86
2018-04-10T00:21:25.304Z,100150.22
2018-04-10T00:23:53.625Z,100148.55
2018-04-10T00:26:21.968Z,100151.40
2018-04-10T00:28:50.295Z,100147.31
2018-04-10T00:31:19.390Z,100144.89
2018-04-10T00:33:47.704Z,100143.55
2018-04-10T00:36:16.788Z,100147.98
2018-04-10T00:38:45.882Z,100142.11
2018-04-10T00:41:14.189Z,100146.41
2018-04-10T00:43:42.497Z,100144.22
2018-04-10T00:46:10.824Z,100145.64
2018-04-10T00:48:39.142Z,100143.89
2018-04-10T00:51:07.557Z,100151.33
2018-04-10T00:53:38.551Z,100150.88
2018-04-10T00:56:07.681Z,100151.40
2018-04-10T00:58:36.010Z,100152.03
2018-04-10T01:01:04.318Z,100149.17
2018-04-10T01:03:33.386Z,100148.29
2018-04-10T01:06:01.686Z,100145.42
2018-04-10T01:08:30.772Z,100144.39
2018-04-10T01:10:59.081Z,100138.73
2018-04-10T01:13:27.403Z,100139.78
2018-04-10T01:15:55.717Z,100138.73
2018-04-10T01:18:24.797Z,100142.94
2018-04-10T01:20:53.125Z,100146.72
2018-04-10T01:23:21.429Z,100140.03
2018-04-10T01:25:49.732Z,100138.63
2018-04-10T01:28:18.051Z,100145.42
2018-04-10T01:30:47.120Z,100133.84
2018-04-10T01:33:15.425Z,100139.78
2018-04-10T01:35:44.503Z,100136.66
2018-04-10T01:38:12.835Z,100142.83
2018-04-10T01:40:41.137Z,100144.87
2018-04-10T01:43:09.505Z,100144.16
2018-04-10T01:45:37.869Z,100136.02
2018-04-10T01:48:06.187Z,100142.50
2018-04-10T01:50:34.510Z,100144.72
2018-04-10T01:53:03.586Z,100143.38
2018-04-10T01:55:31.892Z,100145.70
2018-04-10T01:58:01.011Z,100140.23
2018-04-10T02:00:29.316Z,100144.38
2018-04-10T02:02:57.629Z,100143.37
2018-04-10T02:05:25.950Z,100141.55
2018-04-10T02:07:54.279Z,100142.75
2018-04-10T02:10:22.591Z,100126.42
2018-04-10T02:12:51.670Z,100133.95
2018-04-10T02:15:20.002Z,100137.08
2018-04-10T02:17:48.313Z,100137.44
2018-04-10T02:20:17.828Z,100141.66
2018-04-10T02:22:46.175Z,100144.11
2018-04-10T02:25:14.486Z,100147.91
2018-04-10T02:27:42.860Z,100144.09
2018-04-10T02:30:11.171Z,100136.89
2018-04-10T02:32:39.472Z,100137.44
2018-04-10T02:35:08.555Z,100135.17
2018-04-10T02:37:36.880Z,100136.52
2018-04-10T02:40:05.206Z,100141.01
2018-04-10T02:42:33.531Z,100132.70
2018-04-10T02:45:01.854Z,100130.41
2018-04-10T02:47:30.195Z,100136.34
2018-04-10T02:49:58.505Z,100141.33
2018-04-10T02:52:26.820Z,100140.67
2018-04-10T02:54:56.650Z,100139.34
2018-04-10T02:57:25.725Z,100136.91
2018-04-10T02:59:54.034Z,100135.66
2018-04-10T03:02:23.237Z,100139.93
2018-04-10T03:04:52.313Z,100150.48
2018-04-10T03:07:20.621Z,100147.00
2018-04-10T03:09:49.711Z,100146.13
2018-04-10T03:12:18.794Z,100138.94
2018-04-10T03:14:47.095Z,100146.70
2018-04-10T03:17:16.175Z,100149.57
2018-04-10T03:19:44.491Z,100146.31
2018-04-10T03:22:12.797Z,100142.83
2018-04-10T03:24:41.121Z,100143.68
2018-04-10T03:27:09.455Z,100151.19
2018-04-10T03:29:37.839Z,100148.03
2018-04-10T03:32:06.158Z,100148.95
2018-04-10T03:34:34.464Z,100152.78
2018-04-10T03:37:03.545Z,100154.30
2018-04-10T03:39:31.879Z,100155.14
2018-04-10T03:42:00.187Z,100154.03
2018-04-10T03:44:28.495Z,100151.42
2018-04-10T03:46:56.813Z,100154.98
2018-04-10T03:49:25.129Z,100159.70
2018-04-10T03:51:53.448Z,100165.66
2018-04-10T03:54:22.527Z,100168.25
2018-04-10T03:56:50.857Z,100168.14
2018-04-10T03:59:19.193Z,100169.14
2018-04-10T04:01:47.511Z,100168.05
2018-04-10T04:04:15.836Z,100167.12
2018-04-10T04:06:44.174Z,100171.32
2018-04-10T04:09:12.482Z,100177.56
2018-04-10T04:11:40.822Z,100179.45
2018-04-10T04:14:09.911Z,100175.42
2018-04-10T04:16:56.688Z,100173.93
2018-04-10T04:19:42.707Z,100184.45
2018-04-10T04:25:17.127Z,100185.05
2018-04-10T04:27:46.216Z,100191.34
2018-04-10T04:30:14.534Z,100195.64
2018-04-10T04:32:42.852Z,100205.86
2018-04-10T04:35:11.165Z,100192.87
2018-04-10T04:37:39.581Z,100192.57
2018-04-10T04:40:07.892Z,100197.01
2018-04-10T04:42:36.212Z,100198.97
2018-04-10T04:45:05.294Z,100197.34
2018-04-10T04:47:33.632Z,100197.58
2018-04-10T04:50:01.952Z,100211.83
2018-04-10T04:52:30.264Z,100208.05
2018-04-10T04:54:59.362Z,100211.61
2018-04-10T04:57:28.463Z,100214.47
2018-04-10T04:59:57.562Z,100215.43
2018-04-10T05:02:25.894Z,100216.54
2018-04-10T05:04:54.215Z,100222.72
2018-04-10T05:07:23.307Z,100223.41
2018-04-10T05:09:52.483Z,100242.25
2018-04-10T05:12:20.994Z,100248.48
2018-04-10T05:14:50.101Z,100252.72
2018-04-10T05:17:18.430Z,100251.84
2018-04-10T05:19:46.759Z,100259.20
2018-04-10T05:22:15.844Z,100261.77
2018-04-10T05:24:44.376Z,100263.16
2018-04-10T05:27:12.729Z,100267.91
2018-04-10T05:29:41.838Z,100277.42
2018-04-10T05:32:10.953Z,100277.60
2018-04-10T05:34:39.293Z,100281.75
2018-04-10T05:37:07.627Z,100280.52
2018-04-10T05:39:35.950Z,100279.41
2018-04-10T05:42:04.306Z,100284.63
2018-04-10T05:44:32.636Z,100287.84
2018-04-10T05:47:01.791Z,100283.23
2018-04-10T05:49:30.138Z,100287.34
2018-04-10T05:51:58.453Z,100292.00
2018-04-10T05:54:27.557Z,100297.45
2018-04-10T05:56:55.878Z,100304.69
2018-04-10T05:59:24.986Z,100312.99
2018-04-10T06:01:53.353Z,100313.69
2018-04-10T06:04:22.454Z,100314.80
2018-04-10T06:06:51.553Z,100312.53
2018-04-10T06:09:20.650Z,100322.15
2018-04-10T06:11:49.726Z,100315.20
2018-04-10T06:14:18.031Z,100319.69
2018-04-10T06:16:47.165Z,100324.20
2018-04-10T06:19:15.494Z,100328.40
2018-04-10T06:21:43.840Z,100330.30
2018-04-10T06:24:12.200Z,100337.37
2018-04-10T06:26:40.649Z,100328.66
2018-04-10T06:29:10.587Z,100335.30
2018-04-10T06:31:39.678Z,100329.39
2018-04-10T06:34:08.761Z,100329.11
2018-04-10T06:36:37.066Z,100332.56
2018-04-10T06:39:06.776Z,100332.73
2018-04-10T06:41:35.863Z,100343.13
2018-04-10T06:44:04.960Z,100343.75
2018-04-10T06:46:33.333Z,100340.95
2018-04-10T06:49:01.638Z,100344.80
2018-04-10T06:51:29.970Z,100350.52
2018-04-10T06:53:58.387Z,100358.84
2018-04-10T06:56:26.710Z,100364.78
2018-04-10T06:58:55.794Z,100361.98
2018-04-10T07:01:24.871Z,100362.48
2018-04-10T07:03:53.194Z,100362.53
2018-04-10T07:06:21.522Z,100364.47
2018-04-10T07:08:49.839Z,100362.47
2018-04-10T07:11:18.167Z,100371.16
2018-04-10T07:13:46.805Z,100368.97
2018-04-10T07:16:16.166Z,100375.73
2018-04-10T07:18:44.494Z,100377.89
2018-04-10T07:21:12.805Z,100382.20
2018-04-10T07:23:41.135Z,100378.78
2018-04-10T07:26:10.234Z,100374.41
2018-04-10T07:28:41.318Z,100380.93
2018-04-10T07:31:09.637Z,100387.07
2018-04-10T07:33:38.022Z,100396.70
2018-04-10T07:36:06.363Z,100400.81
2018-04-10T07:38:34.691Z,100404.91
2018-04-10T07:41:03.006Z,100411.30
2018-04-10T07:43:32.099Z,100413.48
2018-04-10T07:46:00.438Z,100416.32
2018-04-10T07:48:28.790Z,100416.48
2018-04-10T07:50:57.107Z,100419.60
2018-04-10T07:53:25.419Z,100421.11
2018-04-10T07:55:54.487Z,100426.97
2018-04-10T07:58:22.813Z,100433.87
2018-04-10T08:00:51.129Z,100430.80
2018-04-10T08:03:19.459Z,100433.66
2018-04-10T08:05:48.590Z,100434.22
2018-04-10T08:08:16.899Z,100446.69
2018-04-10T08:10:45.356Z,100462.80
2018-04-10T08:13:17.060Z,100463.34
2018-04-10T08:15:50.398Z,100470.61
2018-04-10T08:18:24.698Z,100477.19
2018-04-10T08:20:54.727Z,100475.94
2018-04-10T08:23:24.982Z,100484.32
2018-04-10T08:26:04.267Z,100492.17
2018-04-10T08:28:39.610Z,100488.63
2018-04-10T08:31:09.362Z,100496.84
2018-04-10T08:33:38.279Z,100503.02
2018-04-10T08:36:09.097Z,100503.67
2018-04-10T08:38:43.621Z,100512.72
2018-04-10T08:41:15.840Z,100519.54
2018-04-10T08:43:44.324Z,100512.20
2018-04-10T08:46:12.823Z,100518.66
2018-04-10T08:48:41.999Z,100525.12
2018-04-10T08:51:10.361Z,100527.02
2018-04-10T08:53:38.705Z,100520.67
2018-04-10T08:56:08.645Z,100515.84
2018-04-10T08:58:38.122Z,100515.26
2018-04-10T09:01:07.204Z,100513.34
2018-04-10T09:03:37.647Z,100506.78
2018-04-10T09:06:07.038Z,100501.41
2018-04-10T09:08:35.442Z,100503.33
2018-04-10T09:11:04.638Z,100497.00
2018-04-10T09:13:33.748Z,100497.70
2018-04-10T09:16:02.076Z,100491.77
2018-04-10T09:18:30.446Z,100493.47
2018-04-10T09:20:58.882Z,100493.55
2018-04-10T09:23:27.968Z,100493.95
2018-04-10T09:25:56.555Z,100496.71
2018-04-10T09:28:25.067Z,100494.28
2018-04-10T09:30:53.439Z,100491.33
2018-04-10T09:33:23.092Z,100491.54
2018-04-10T09:35:51.633Z,100501.31
2018-04-10T09:38:22.652Z,100504.44
2018-04-10T09:40:53.265Z,100495.91
2018-04-10T09:43:21.598Z,100495.56
2018-04-10T09:45:50.715Z,100489.61
2018-04-10T09:48:19.223Z,100492.00
2018-04-10T09:50:49.088Z,100490.17
2018-04-10T09:53:17.412Z,100482.92
2018-04-10T09:55:46.148Z,100483.98
2018-04-10T09:58:16.145Z,100487.82
2018-04-10T10:00:45.378Z,100485.34
2018-04-10T10:03:13.938Z,100495.86
2018-04-10T10:05:42.824Z,100495.02
2018-04-10T10:08:11.157Z,100489.61
2018-04-10T10:10:39.464Z,100493.03
2018-04-10T10:13:08.034Z,100495.17
2018-04-10T10:15:36.432Z,100496.23
2018-04-10T10:18:04.768Z,100504.66
2018-04-10T10:20:33.474Z,100509.22
2018-04-10T10:23:01.900Z,100500.36
2018-04-10T10:25:31.836Z,100515.69
2018-04-10T10:28:05.211Z,100518.55
2018-04-10T10:30:34.836Z,100526.73
2018-04-10T10:33:05.320Z,100532.97
2018-04-10T10:35:33.696Z,100534.92
2018-04-10T10:38:03.121Z,100532.01
2018-04-10T10:40:32.830Z,100532.19
2018-04-10T10:43:01.897Z,100536.33
2018-04-10T10:45:30.660Z,100534.05
2018-04-10T10:48:00.134Z,100526.41
2018-04-10T10:50:29.515Z,100526.36
2018-04-10T10:52:57.977Z,100522.55
2018-04-10T10:55:26.375Z,100530.32
2018-04-10T10:57:54.756Z,100527.05
2018-04-10T11:00:24.252Z,100531.94
2018-04-10T11:02:54.182Z,100529.09
2018-04-10T11:05:23.522Z,100535.30
2018-04-10T11:07:52.696Z,100534.25
2018-04-10T11:10:21.033Z,100532.89
2018-04-10T11:12:49.361Z,100532.07
2018-04-10T11:15:17.669Z,100537.66
2018-04-10T11:17:46.749Z,100535.00
2018-04-10T11:20:15.879Z,100528.22
2018-04-10T11:22:44.200Z,100533.45
2018-04-10T11:25:12.507Z,100531.27
2018-04-10T11:27:40.830Z,100534.22
2018-04-10T11:30:09.169Z,100532.83
2018-04-10T11:32:37.480Z,100532.72
2018-04-10T11:35:05.813Z,100532.98
2018-04-10T11:37:34.143Z,100534.89
2018-04-10T11:40:03.246Z,100530.24
2018-04-10T11:42:32.325Z,100529.03
2018-04-10T11:45:01.427Z,100524.88
2018-04-10T11:47:29.749Z,100519.48
2018-04-10T11:49:58.093Z,100529.67
2018-04-10T11:52:27.221Z,100527.11
2018-04-10T11:54:55.533Z,100521.78
2018-04-10T11:57:23.861Z,100516.75
2018-04-10T11:59:52.967Z,100523.43
2018-04-10T12:02:21.288Z,100525.64
2018-04-10T12:04:49.603Z,100522.99
2018-04-10T12:07:17.944Z,100522.70
2018-04-10T12:09:46.327Z,100530.44
2018-04-10T12:12:14.672Z,100535.47
2018-04-10T12:14:43.773Z,100539.06
2018-04-10T12:17:12.873Z,100544.02
2018-04-10T12:19:41.978Z,100543.52
2018-04-10T12:22:11.841Z,100535.56
2018-04-10T12:24:40.212Z,100535.61
2018-04-10T12:27:08.561Z,100535.99
2018-04-10T12:29:36.934Z,100545.67
2018-04-10T12:32:06.026Z,100533.48
2018-04-10T12:34:35.108Z,100534.70
2018-04-10T12:37:03.444Z,100533.72
2018-04-10T12:39:31.758Z,100531.34
2018-04-10T12:42:00.094Z,100529.00
2018-04-10T12:44:28.438Z,100542.55
2018-04-10T12:46:57.597Z,100537.58
2018-04-10T12:49:25.957Z,100538.31
2018-04-10T12:51:54.300Z,100531.11
2018-04-10T12:54:22.624Z,100532.19
2018-04-10T12:56:50.964Z,100532.58
2018-04-10T12:59:19.283Z,100535.03
2018-04-10T13:01:47.620Z,100527.60
2018-04-10T13:04:15.956Z,100528.47
2018-04-10T13:06:44.291Z,100532.91
2018-04-10T13:09:12.636Z,100532.83
2018-04-10T13:11:40.965Z,100528.10
2018-04-10T13:14:09.290Z,100529.31
2018-04-10T13:16:37.625Z,100536.53
2018-04-10T13:19:05.982Z,100540.14
2018-04-10T13:21:34.318Z,100538.55
2018-04-10T13:24:02.621Z,100529.58
2018-04-10T13:26:30.974Z,100534.09
2018-04-10T13:28:59.326Z,100531.99
2018-04-10T13:31:27.642Z,100527.88
2018-04-10T13:33:55.976Z,100529.17
2018-04-10T13:36:25.340Z,100532.48
2018-04-10T13:38:53.655Z,100534.22
2018-04-10T13:41:21.976Z,100529.88
2018-04-10T13:43:51.396Z,100530.20
2018-04-10T13:46:19.715Z,100526.47
2018-04-10T13:48:48.029Z,100528.53
2018-04-10T13:51:16.425Z,100529.41
2018-04-10T13:53:45.581Z,100526.02
2018-04-10T13:56:13.938Z,100514.87
2018-04-10T13:58:42.278Z,100518.99
2018-04-10T14:01:10.635Z,100518.41
2018-04-10T14:03:38.989Z,100511.10
2018-04-10T14:06:07.327Z,100516.78
2018-04-10T14:08:36.506Z,100514.50
2018-04-10T14:11:04.814Z,100519.98
2018-04-10T14:13:33.917Z,100518.75
2018-04-10T14:16:03.024Z,100513.68
2018-04-10T14:18:32.109Z,100512.16
2018-04-10T14:21:00.425Z,100516.80
2018-04-10T14:23:28.777Z,100511.25
2018-04-10T14:25:57.869Z,100515.70
2018-04-10T14:28:30.993Z,100510.98
2018-04-10T14:30:59.322Z,100513.52
2018-04-10T14:33:27.631Z,100516.13
2018-04-10T14:35:56.714Z,100508.46
2018-04-10T14:38:25.040Z,100512.85
2018-04-10T14:40:53.376Z,100506.30
2018-04-10T14:43:22.476Z,100510.23
2018-04-10T14:45:50.814Z,100506.55
2018-04-10T14:48:19.124Z,100505.59
2018-04-10T14:50:47.509Z,100503.22
2018-04-10T14:53:15.862Z,100505.28
2018-04-10T14:55:44.608Z,100507.95
2018-04-10T14:58:12.913Z,100506.34
2018-04-10T15:00:41.233Z,100507.83
2018-04-10T15:03:09.552Z,100513.16
2018-04-10T15:05:37.867Z,100509.96
2018-04-10T15:08:06.253Z,100502.72
2018-04-10T15:10:34.591Z,100507.38
2018-04-10T15:13:02.906Z,100507.69
2018-04-10T15:15:31.225Z,100508.88
2018-04-10T15:17:59.547Z,100513.98
2018-04-10T15:20:28.648Z,100514.68
2018-04-10T15:22:57.726Z,100512.20
2018-04-10T15:25:26.041Z,100523.89
2018-04-10T15:27:54.393Z,100519.19
2018-04-10T15:30:22.716Z,100520.98
2018-04-10T15:32:51.123Z,100518.27
2018-04-10T15:35:19.444Z,100516.44
2018-04-10T15:37:47.792Z,100518.80
2018-04-10T15:40:16.115Z,100520.30
2018-04-10T15:42:45.199Z,100517.09
2018-04-10T15:45:13.630Z,100518.47
2018-04-10T15:47:41.966Z,100519.18
2018-04-10T15:50:10.307Z,100518.14
2018-04-10T15:52:38.612Z,100523.22
2018-04-10T15:55:06.919Z,100525.66
2018-04-10T15:57:35.239Z,100526.61
2018-04-10T16:00:03.579Z,100525.61
2018-04-10T16:02:31.914Z,100530.46
2018-04-10T16:05:00.315Z,100531.42
2018-04-10T16:07:28.633Z,100525.86
2018-04-10T16:09:56.950Z,100537.19
2018-04-10T16:12:25.672Z,100532.19
2018-04-10T16:14:54.004Z,100537.38
2018-04-10T16:17:23.120Z,100532.51
2018-04-10T16:19:51.448Z,100536.48
2018-04-10T16:22:19.804Z,100534.25
2018-04-10T16:24:48.128Z,100538.86
2018-04-10T16:27:16.448Z,100537.23
2018-04-10T16:29:44.788Z,100542.73
2018-04-10T16:32:13.900Z,100539.29
2018-04-10T16:34:43.019Z,100534.89
2018-04-10T16:37:11.342Z,100537.92
2018-04-10T16:39:40.446Z,100536.95
2018-04-10T16:42:08.806Z,100537.13
2018-04-10T16:44:37.177Z,100538.31
2018-04-10T16:47:05.492Z,100535.52
2018-04-10T16:49:33.816Z,100545.09
2018-04-10T16:52:02.891Z,100543.84
2018-04-10T16:54:31.214Z,100541.04
2018-04-10T16:56:59.524Z,100541.11
2018-04-10T16:59:27.855Z,100543.67
2018-04-10T17:01:56.934Z,100541.05
2018-04-10T17:04:25.268Z,100546.28
2018-04-10T17:06:53.600Z,100550.16
2018-04-10T17:09:21.939Z,100545.72
2018-04-10T17:11:50.253Z,100545.36
2018-04-10T17:14:18.578Z,100543.36
2018-04-10T17:16:47.471Z,100544.72
2018-04-10T17:19:15.840Z,100543.86
2018-04-10T17:21:44.943Z,100545.04
2018-04-10T17:24:14.023Z,100550.00
2018-04-10T17:26:42.351Z,100541.66
2018-04-10T17:29:10.679Z,100537.12
2018-04-10T17:31:39.005Z,100547.05
2018-04-10T17:34:07.341Z,100544.78
2018-04-10T17:36:35.656Z,100547.70
2018-04-10T17:39:04.007Z,100553.05
2018-04-10T17:41:32.336Z,100551.05
2018-04-10T17:44:00.668Z,100551.36
2018-04-10T17:46:28.973Z,100562.61
2018-04-10T17:48:58.095Z,100553.16
2018-04-10T17:51:26.409Z,100558.17
2018-04-10T17:53:54.749Z,100552.36
2018-04-10T17:56:23.067Z,100553.94
2018-04-10T17:58:51.395Z,100553.07
2018-04-10T18:01:20.515Z,100553.18
2018-04-10T18:03:48.833Z,100554.05
2018-04-10T18:06:17.159Z,100555.47
2018-04-10T18:08:46.242Z,100561.03
2018-04-10T18:11:14.565Z,100563.77
2018-04-10T18:13:42.868Z,100563.31
2018-04-10T18:16:11.198Z,100564.98
2018-04-10T18:18:39.741Z,100562.47
2018-04-10T18:21:08.091Z,100563.86
2018-04-10T18:23:36.430Z,100573.94
2018-04-10T18:26:04.780Z,100572.34
2018-04-10T18:28:33.094Z,100573.42
2018-04-10T18:31:01.412Z,100579.59
2018-04-10T18:33:30.546Z,100575.32
2018-04-10T18:36:03.158Z,100583.27
2018-04-10T18:38:31.716Z,100583.98
2018-04-10T18:41:01.403Z,100579.41
2018-04-10T18:43:29.737Z,100591.11
2018-04-10T18:45:58.086Z,100583.06
2018-04-10T18:48:26.402Z,100588.98
2018-04-10T18:50:54.721Z,100589.64
2018-04-10T18:53:23.043Z,100589.56
2018-04-10T18:55:51.387Z,100591.34
2018-04-10T18:58:21.456Z,100598.84
2018-04-10T19:00:49.766Z,100596.09
2018-04-10T19:03:18.098Z,100600.77
2018-04-10T19:05:46.424Z,100599.84
2018-04-10T19:08:15.584Z,100608.86
2018-04-10T19:10:43.922Z,100601.84
2018-04-10T19:13:13.033Z,100610.94
2018-04-10T19:15:41.353Z,100613.20
2018-04-10T19:18:09.681Z,100619.32
2018-04-10T19:20:38.766Z,100620.56
2018-04-10T19:23:07.083Z,100620.44
2018-04-10T19:25:35.397Z,100619.92
2018-04-10T19:28:03.724Z,100618.03
2018-04-10T19:30:32.884Z,100616.58
2018-04-10T19:33:01.239Z,100614.30
2018-04-10T19:35:29.595Z,100614.36
2018-04-10T19:37:58.657Z,100615.63
2018-04-10T19:40:26.986Z,100612.53
2018-04-10T19:42:55.382Z,100613.74
2018-04-10T19:45:23.727Z,100605.97
2018-04-10T19:47:52.064Z,100611.64
2018-04-10T19:50:20.375Z,100617.77
2018-04-10T19:52:49.092Z,100616.94
2018-04-10T19:55:18.211Z,100613.27
2018-04-10T19:57:46.574Z,100614.31
2018-04-10T20:00:15.673Z,100624.20
2018-04-10T20:02:45.500Z,100631.70
2018-04-10T20:05:13.820Z,100630.53
2018-04-10T20:07:42.145Z,100633.42
2018-04-10T20:10:11.256Z,100624.25
2018-04-10T20:12:40.360Z,100615.71
2018-04-10T20:15:08.698Z,100626.18
2018-04-10T20:17:37.032Z,100637.34
2018-04-10T20:20:05.342Z,100634.98
2018-04-10T20:22:33.686Z,100627.50
2018-04-10T20:25:02.006Z,100624.20
2018-04-10T20:27:30.348Z,100617.77
2018-04-10T20:29:58.688Z,100620.69
2018-04-10T20:32:27.027Z,100618.64
2018-04-10T20:34:55.356Z,100618.64
2018-04-10T20:37:23.659Z,100616.77
2018-04-10T20:39:51.995Z,100618.38
2018-04-10T20:42:20.296Z,100615.98
2018-04-10T20:44:48.705Z,100617.15
2018-04-10T20:47:17.251Z,100613.99
2018-04-10T20:49:45.600Z,100614.31
2018-04-10T20:52:13.914Z,100611.91
2018-04-10T20:54:42.238Z,100610.04
2018-04-10T20:57:11.340Z,100612.02
2018-04-10T20:59:40.419Z,100615.83
2018-04-10T21:02:08.795Z,100617.48
2018-04-10T21:04:37.129Z,100613.48
2018-04-10T21:07:05.430Z,100611.69
2018-04-10T21:09:33.759Z,100620.52
2018-04-10T21:12:02.841Z,100627.14
2018-04-10T21:14:31.173Z,100627.89
2018-04-10T21:16:59.494Z,100625.14
2018-04-10T21:19:27.807Z,100616.31
2018-04-10T21:21:56.906Z,100597.91
2018-04-10T21:24:25.246Z,100591.73
2018-04-10T21:26:55.989Z,100584.92
2018-04-10T21:29:25.117Z,100580.01
2018-04-10T21:31:53.436Z,100581.77
2018-04-10T21:34:25.380Z,100586.63
2018-04-10T21:36:56.852Z,100572.98
2018-04-10T21:39:25.764Z,100580.47
2018-04-10T21:41:54.285Z,100588.00
2018-04-10T21:44:22.624Z,100581.36
2018-04-10T21:46:51.021Z,100570.66
2018-04-10T21:49:19.341Z,100579.16
2018-04-10T21:51:48.554Z,100581.46
2018-04-10T21:54:17.641Z,100576.80
2018-04-10T21:56:45.955Z,100585.73
2018-04-10T21:59:14.285Z,100584.91
2018-04-10T22:01:42.593Z,100584.88
2018-04-10T22:04:11.713Z,100585.20
2018-04-10T22:06:40.032Z,100596.26
2018-04-10T22:09:08.363Z,100594.84
2018-04-10T22:11:36.682Z,100593.05
2018-04-10T22:14:05.038Z,100582.16
2018-04-10T22:16:33.355Z,100592.20
2018-04-10T22:19:01.864Z,100591.25
2018-04-10T22:21:30.170Z,100583.51
2018-04-10T22:23:59.232Z,100572.45
2018-04-10T22:26:27.629Z,100567.39
2018-04-10T22:28:55.946Z,100578.64
2018-04-10T22:31:24.282Z,100589.97
2018-04-10T22:33:52.552Z,100601.81
2018-04-10T22:36:21.646Z,100607.52
2018-04-10T22:38:50.002Z,100631.47
2018-04-10T22:41:18.320Z,100648.43
2018-04-10T22:43:47.406Z,100632.94
2018-04-10T22:46:15.741Z,100635.44
2018-04-10T22:48:44.048Z,100634.13
2018-04-10T22:51:12.366Z,100631.18
2018-04-10T22:53:41.459Z,100645.31
2018-04-10T22:56:10.578Z,100647.36
2018-04-10T22:58:38.897Z,100647.55
2018-04-10T23:01:07.215Z,100658.62
2018-04-10T23:03:36.326Z,100657.16
2018-04-10T23:06:05.410Z,100660.19
2018-04-10T23:08:33.758Z,100658.73
2018-04-10T23:11:02.065Z,100666.03
2018-04-10T23:13:30.384Z,100678.89
2018-04-10T23:15:59.464Z,100683.22
2018-04-10T23:18:27.765Z,100678.67
2018-04-10T23:20:56.874Z,100685.45
2018-04-10T23:23:25.968Z,100694.07
2018-04-10T23:25:55.040Z,100692.39
2018-04-10T23:28:23.351Z,100689.48
2018-04-10T23:30:52.430Z,100713.12
2018-04-10T23:33:20.752Z,100701.11
2018-04-10T23:35:49.065Z,100688.52
2018-04-10T23:38:17.365Z,100685.90
2018-04-10T23:40:45.674Z,100677.59
2018-04-10T23:43:13.991Z,100672.92
2018-04-10T23:45:42.315Z,100665.58
2018-04-10T23:48:10.630Z,100666.73
2018-04-10T23:50:39.059Z,100661.66
2018-04-10T23:53:07.422Z,100667.81
2018-04-10T23:55:35.740Z,100672.10
2018-04-10T23:58:04.051Z,100665.88
